createdAt,value
2019-02-14T00:01:53.068Z,4.20
2019-02-14T00:04:22.912Z,4.50
2019-02-14T00:06:52.730Z,4.73
2019-02-14T00:09:22.844Z,4.70
2019-02-14T00:11:52.481Z,3.70
2019-02-14T00:14:22.369Z,4.27
2019-02-14T00:16:52.579Z,4.60
2019-02-14T00:19:22.587Z,4.80
2019-02-14T00:21:52.565Z,4.80
2019-02-14T00:24:22.417Z,4.70
2019-02-14T00:26:56.404Z,5.13
2019-02-14T00:29:26.236Z,4.60
2019-02-14T00:31:55.784Z,3.83
2019-02-14T00:34:26.376Z,4.50
2019-02-14T00:36:56.037Z,4.43
2019-02-14T00:39:26.173Z,5.80
2019-02-14T00:41:55.820Z,5.23
2019-02-14T00:44:25.625Z,4.77
2019-02-14T00:46:55.431Z,3.47
2019-02-14T00:49:25.316Z,3.60
2019-02-14T00:51:54.859Z,3.37
2019-02-14T00:54:24.402Z,4.53
2019-02-14T00:56:53.955Z,4.20
2019-02-14T00:59:23.500Z,5.70
2019-02-14T01:01:53.041Z,4.57
2019-02-14T01:04:22.884Z,5.50
2019-02-14T01:06:52.420Z,5.33
2019-02-14T01:09:22.047Z,5.90
2019-02-14T01:11:51.908Z,4.67
2019-02-14T01:14:21.448Z,4.13
2019-02-14T01:16:50.992Z,3.60
2019-02-14T01:19:20.830Z,3.50
2019-02-14T01:21:50.389Z,3.10
2019-02-14T01:24:19.932Z,2.83
2019-02-14T01:26:49.494Z,3.73
2019-02-14T01:29:19.029Z,3.80
2019-02-14T01:31:48.590Z,3.40
2019-02-14T01:34:18.470Z,3.30
2019-02-14T01:36:48.277Z,3.50
2019-02-14T01:39:17.859Z,3.00
2019-02-14T01:41:47.798Z,2.93
2019-02-14T01:44:18.017Z,3.33
2019-02-14T01:46:47.561Z,2.97
2019-02-14T01:49:17.405Z,2.73
2019-02-14T01:51:47.349Z,2.53
2019-02-14T01:54:17.161Z,3.80
2019-02-14T01:56:46.974Z,3.90
2019-02-14T01:59:16.784Z,3.77
2019-02-14T02:01:46.331Z,4.13
2019-02-14T02:04:15.877Z,3.40
2019-02-14T02:06:45.933Z,2.80
2019-02-14T02:09:15.480Z,3.20
2019-02-14T02:11:45.153Z,2.70
2019-02-14T02:14:14.739Z,3.17
2019-02-14T02:16:44.296Z,2.97
2019-02-14T02:19:13.837Z,3.50
2019-02-14T02:21:43.380Z,3.23
2019-02-14T02:24:13.258Z,3.70
2019-02-14T02:26:42.796Z,3.63
2019-02-14T02:29:12.340Z,3.67
2019-02-14T02:31:42.175Z,3.30
2019-02-14T02:34:11.725Z,4.00
2019-02-14T02:36:41.908Z,4.00
2019-02-14T02:39:11.546Z,3.70
2019-02-14T02:41:41.094Z,4.07
2019-02-14T02:44:10.630Z,3.97
2019-02-14T02:46:40.186Z,3.07
2019-02-14T02:49:09.729Z,4.10
2019-02-14T02:51:39.377Z,3.27
2019-02-14T02:54:09.241Z,4.37
2019-02-14T02:56:38.793Z,3.77
2019-02-14T02:59:08.354Z,3.70
2019-02-14T03:01:37.905Z,3.77
2019-02-14T03:04:07.466Z,4.03
2019-02-14T03:06:37.015Z,3.67
2019-02-14T03:09:06.961Z,3.47
2019-02-14T03:11:36.504Z,3.90
2019-02-14T03:14:06.425Z,3.90
2019-02-14T03:16:36.053Z,3.23
2019-02-14T03:19:05.592Z,3.47
2019-02-14T03:21:35.147Z,3.47
2019-02-14T03:24:05.136Z,3.40
2019-02-14T03:26:34.945Z,2.83
2019-02-14T03:29:04.597Z,3.27
2019-02-14T03:31:34.160Z,3.53
2019-02-14T03:34:03.712Z,3.27
2019-02-14T03:36:33.262Z,2.90
2019-02-14T03:39:04.477Z,2.90
2019-02-14T03:41:34.206Z,2.53
2019-02-14T03:44:04.227Z,2.60
2019-02-14T03:46:33.785Z,2.90
2019-02-14T03:49:03.383Z,3.27
2019-02-14T03:51:32.917Z,3.80
2019-02-14T03:54:02.532Z,2.93
2019-02-14T03:56:32.385Z,3.10
2019-02-14T03:59:02.001Z,3.50
2019-02-14T04:01:31.885Z,3.63
2019-02-14T04:04:01.701Z,3.93
2019-02-14T04:06:31.244Z,3.03
2019-02-14T04:09:00.809Z,3.53
2019-02-14T04:11:30.348Z,3.10
2019-02-14T04:13:59.889Z,3.53
2019-02-14T04:16:29.725Z,3.23
2019-02-14T04:18:59.541Z,3.60
2019-02-14T04:21:29.456Z,3.63
2019-02-14T04:23:59.601Z,4.37
2019-02-14T04:26:29.136Z,3.40
2019-02-14T04:28:58.699Z,3.60
2019-02-14T04:31:28.492Z,3.37
2019-02-14T04:33:58.300Z,3.63
2019-02-14T04:36:35.544Z,3.93
2019-02-14T04:38:59.109Z,3.93
2019-02-14T04:41:28.676Z,3.60
2019-02-14T04:43:58.221Z,3.60
2019-02-14T04:46:31.047Z,4.80
2019-02-14T04:49:00.596Z,5.10
2019-02-14T04:51:30.158Z,4.77
2019-02-14T04:53:59.943Z,4.40
2019-02-14T04:56:29.498Z,4.77
2019-02-14T04:58:59.382Z,4.40
2019-02-14T05:01:28.925Z,4.40
2019-02-14T05:03:58.809Z,3.73
2019-02-14T05:06:28.347Z,4.33
2019-02-14T05:08:58.217Z,3.87
2019-02-14T05:11:31.949Z,3.77
2019-02-14T05:14:01.492Z,4.30
2019-02-14T05:16:31.048Z,3.50
2019-02-14T05:19:00.955Z,4.67
2019-02-14T05:21:30.734Z,3.80
2019-02-14T05:24:00.281Z,4.00
2019-02-14T05:26:30.073Z,4.73
2019-02-14T05:28:59.881Z,6.03
2019-02-14T05:31:29.796Z,4.93
2019-02-14T05:33:59.344Z,5.57
2019-02-14T05:36:29.213Z,6.10
2019-02-14T05:38:59.130Z,5.07
2019-02-14T05:41:28.688Z,6.03
2019-02-14T05:43:58.240Z,4.97
2019-02-14T05:46:28.163Z,4.40
2019-02-14T05:48:57.695Z,4.67
2019-02-14T05:51:27.252Z,4.93
2019-02-14T05:53:56.878Z,4.87
2019-02-14T05:56:26.432Z,3.57
2019-02-14T05:58:55.992Z,3.73
2019-02-14T06:01:25.625Z,4.87
2019-02-14T06:03:55.165Z,5.07
2019-02-14T06:06:24.775Z,4.70
2019-02-14T06:08:54.584Z,3.80
2019-02-14T06:11:24.420Z,5.10
2019-02-14T06:13:53.977Z,4.37
2019-02-14T06:16:23.524Z,4.70
2019-02-14T06:18:53.088Z,4.90
2019-02-14T06:21:23.256Z,6.30
2019-02-14T06:23:53.062Z,6.00
2019-02-14T06:26:22.628Z,6.00
2019-02-14T06:28:52.481Z,6.00
2019-02-14T06:31:22.296Z,4.17
2019-02-14T06:33:51.868Z,3.20
2019-02-14T06:36:38.089Z,2.93
2019-02-14T06:39:07.652Z,3.33
2019-02-14T06:41:37.205Z,3.40
2019-02-14T06:44:06.997Z,3.40
2019-02-14T06:46:36.820Z,3.30
2019-02-14T06:49:06.383Z,3.37
2019-02-14T06:51:35.942Z,3.23
2019-02-14T06:54:05.480Z,3.23
2019-02-14T06:56:35.026Z,3.10
2019-02-14T06:59:04.657Z,3.63
2019-02-14T07:01:34.204Z,3.10
2019-02-14T07:04:03.816Z,2.97
2019-02-14T07:06:33.668Z,3.73
2019-02-14T07:09:04.977Z,3.70
2019-02-14T07:11:34.916Z,4.07
2019-02-14T07:14:04.565Z,3.37
2019-02-14T07:16:34.764Z,4.50
2019-02-14T07:19:06.384Z,4.03
2019-02-14T07:21:36.308Z,3.50
2019-02-14T07:24:05.849Z,3.67
2019-02-14T07:26:37.653Z,4.57
2019-02-14T07:29:07.570Z,4.23
2019-02-14T07:31:37.115Z,4.13
2019-02-14T07:34:06.660Z,3.47
2019-02-14T07:36:48.913Z,3.90
2019-02-14T07:39:18.472Z,3.10
2019-02-14T07:41:48.280Z,3.70
2019-02-14T07:44:18.146Z,3.10
2019-02-14T07:46:47.692Z,3.67
2019-02-14T07:49:32.804Z,3.97
2019-02-14T07:52:25.673Z,4.07
2019-02-14T07:54:55.240Z,3.63
2019-02-14T07:57:29.181Z,3.13
2019-02-14T08:00:01.498Z,3.37
2019-02-14T08:02:31.804Z,2.87
2019-02-14T08:05:01.873Z,3.03
2019-02-14T08:07:35.923Z,3.40
2019-02-14T08:10:03.959Z,3.40
2019-02-14T08:12:34.346Z,3.63
2019-02-14T08:15:04.436Z,3.00
2019-02-14T08:17:34.565Z,3.30
2019-02-14T08:20:04.668Z,3.03
2019-02-14T08:22:34.872Z,2.90
2019-02-14T08:25:04.848Z,3.30
2019-02-14T08:27:53.232Z,3.87
2019-02-14T08:30:23.145Z,3.40
2019-02-14T08:32:52.695Z,3.07
2019-02-14T08:35:22.297Z,3.63
2019-02-14T08:37:53.822Z,3.70
2019-02-14T08:40:24.481Z,3.23
2019-02-14T08:42:54.345Z,4.30
2019-02-14T08:45:24.165Z,3.13
2019-02-14T08:47:53.696Z,3.40
2019-02-14T08:50:23.576Z,4.23
2019-02-14T08:52:53.389Z,4.50
2019-02-14T08:56:05.493Z,4.70
2019-02-14T08:58:35.313Z,3.40
2019-02-14T09:01:05.141Z,3.40
2019-02-14T09:03:34.925Z,3.33
2019-02-14T09:06:04.613Z,3.70
2019-02-14T09:08:34.470Z,4.77
2019-02-14T09:11:04.718Z,2.90
2019-02-14T09:13:34.333Z,3.97
2019-02-14T09:16:04.390Z,3.57
2019-02-14T09:18:33.925Z,4.50
2019-02-14T09:21:03.842Z,4.03
2019-02-14T09:23:33.720Z,4.70
2019-02-14T09:26:03.539Z,3.63
2019-02-14T09:28:33.081Z,4.03
2019-02-14T09:31:02.632Z,3.67
2019-02-14T09:33:32.169Z,3.90
2019-02-14T09:36:01.952Z,3.97
2019-02-14T09:38:32.177Z,4.20
2019-02-14T09:41:01.716Z,3.23
2019-02-14T09:43:31.256Z,3.70
2019-02-14T09:46:01.100Z,4.80
2019-02-14T09:48:30.637Z,4.30
2019-02-14T09:51:00.264Z,3.83
2019-02-14T09:53:29.808Z,3.73
2019-02-14T09:55:59.356Z,3.80
2019-02-14T09:58:29.536Z,4.20
2019-02-14T10:00:59.483Z,3.00
2019-02-14T10:03:29.024Z,3.43
2019-02-14T10:05:58.724Z,3.73
2019-02-14T10:08:37.949Z,3.27
2019-02-14T10:11:07.616Z,3.93
2019-02-14T10:13:37.166Z,3.87
2019-02-14T10:16:18.143Z,3.60
2019-02-14T10:18:49.032Z,3.73
2019-02-14T10:21:18.832Z,4.33
2019-02-14T10:23:48.391Z,4.30
2019-02-14T10:26:18.557Z,4.33
2019-02-14T10:28:48.668Z,3.80
2019-02-14T10:31:22.389Z,3.50
2019-02-14T10:33:51.927Z,4.27
2019-02-14T10:36:21.469Z,4.63
2019-02-14T10:38:51.092Z,3.93
2019-02-14T10:41:21.560Z,4.67
2019-02-14T10:43:51.738Z,4.77
2019-02-14T10:46:21.641Z,4.43
2019-02-14T10:48:51.565Z,4.13
2019-02-14T10:51:23.441Z,3.77
2019-02-14T10:53:53.000Z,3.43
2019-02-14T10:56:22.624Z,3.70
2019-02-14T10:58:52.237Z,3.93
2019-02-14T11:01:22.153Z,3.70
2019-02-14T11:03:52.378Z,5.13
2019-02-14T11:06:22.398Z,3.70
2019-02-14T11:08:52.305Z,3.60
2019-02-14T11:11:22.885Z,3.50
2019-02-14T11:13:52.432Z,3.00
2019-02-14T11:16:22.580Z,3.67
2019-02-14T11:18:52.370Z,3.70
2019-02-14T11:21:22.181Z,3.50
2019-02-14T11:23:51.725Z,4.10
2019-02-14T11:26:21.601Z,3.37
2019-02-14T11:28:51.406Z,3.80
2019-02-14T11:31:20.950Z,6.50
2019-02-14T11:33:50.733Z,4.07
2019-02-14T11:36:20.560Z,4.07
2019-02-14T11:38:53.495Z,4.30
2019-02-14T11:41:23.326Z,4.03
2019-02-14T11:43:52.978Z,5.27
2019-02-14T11:46:22.508Z,4.33
2019-02-14T11:48:52.052Z,4.00
2019-02-14T11:51:21.607Z,4.57
2019-02-14T11:53:51.165Z,4.77
2019-02-14T11:56:21.684Z,4.23
2019-02-14T11:59:01.452Z,4.50
2019-02-14T12:01:30.995Z,4.07
2019-02-14T12:04:00.848Z,5.00
2019-02-14T12:06:30.845Z,4.50
2019-02-14T12:09:00.848Z,4.37
2019-02-14T12:11:30.485Z,5.17
2019-02-14T12:14:00.028Z,4.60
2019-02-14T12:16:29.613Z,4.30
2019-02-14T12:18:59.452Z,3.87
2019-02-14T12:21:29.317Z,4.43
2019-02-14T12:23:58.869Z,4.40
2019-02-14T12:26:28.720Z,4.83
2019-02-14T12:28:58.282Z,4.40
2019-02-14T12:31:28.154Z,4.37
2019-02-14T12:33:57.965Z,3.67
2019-02-14T12:36:27.513Z,4.47
2019-02-14T12:38:57.376Z,4.53
2019-02-14T12:41:27.188Z,4.33
2019-02-14T12:43:57.518Z,4.07
2019-02-14T12:46:27.728Z,4.00
2019-02-14T12:48:57.644Z,3.87
2019-02-14T12:51:27.212Z,5.77
2019-02-14T12:53:57.072Z,4.63
2019-02-14T12:56:26.617Z,4.03
2019-02-14T12:58:56.185Z,4.10
2019-02-14T13:01:25.748Z,4.37
2019-02-14T13:03:55.541Z,4.13
2019-02-14T13:06:25.403Z,5.00
2019-02-14T13:08:54.939Z,4.00
2019-02-14T13:11:24.480Z,4.53
2019-02-14T13:13:54.456Z,3.90
2019-02-14T13:16:24.006Z,4.57
2019-02-14T13:18:53.537Z,5.53
2019-02-14T13:21:23.080Z,4.93
2019-02-14T13:23:52.861Z,5.10
2019-02-14T13:26:22.653Z,4.27
2019-02-14T13:28:52.213Z,4.63
2019-02-14T13:31:31.327Z,4.53
2019-02-14T13:33:53.328Z,5.23
2019-02-14T13:36:22.960Z,4.70
2019-02-14T13:38:52.773Z,4.23
2019-02-14T13:41:30.898Z,3.57
2019-02-14T13:43:53.949Z,4.00
2019-02-14T13:46:23.500Z,4.43
2019-02-14T13:48:59.913Z,3.97
2019-02-14T13:51:30.085Z,4.60
2019-02-14T13:54:00.204Z,4.70
2019-02-14T13:56:29.753Z,4.50
2019-02-14T13:58:59.995Z,4.27
2019-02-14T14:01:29.556Z,4.30
2019-02-14T14:03:59.087Z,4.17
2019-02-14T14:06:40.701Z,4.23
2019-02-14T14:09:10.645Z,4.40
2019-02-14T14:11:47.690Z,4.77
2019-02-14T14:14:17.351Z,4.50
2019-02-14T14:16:46.953Z,4.63
2019-02-14T14:19:21.176Z,4.90
2019-02-14T14:21:50.717Z,4.57
2019-02-14T14:24:20.886Z,4.70
2019-02-14T14:26:50.840Z,4.73
2019-02-14T14:29:20.705Z,5.30
2019-02-14T14:31:50.340Z,5.17
2019-02-14T14:34:20.224Z,3.50
2019-02-14T14:36:49.786Z,4.57
2019-02-14T14:39:19.636Z,4.03
2019-02-14T14:41:49.448Z,4.43
2019-02-14T14:44:56.040Z,3.50
2019-02-14T14:47:25.912Z,4.70
2019-02-14T14:50:14.323Z,4.10
2019-02-14T14:52:44.152Z,6.60
2019-02-14T14:55:14.013Z,4.60
2019-02-14T14:57:43.576Z,5.00
2019-02-14T15:00:13.848Z,4.20
2019-02-14T15:02:43.754Z,3.80
2019-02-14T15:05:13.567Z,3.73
2019-02-14T15:07:43.377Z,4.03
2019-02-14T15:10:13.071Z,4.40
2019-02-14T15:12:42.700Z,4.67
2019-02-14T15:15:12.583Z,5.00
2019-02-14T15:17:42.442Z,4.40
2019-02-14T15:20:11.989Z,4.70
2019-02-14T15:22:42.053Z,4.50
2019-02-14T15:25:11.943Z,3.97
2019-02-14T15:27:42.169Z,3.77
2019-02-14T15:30:11.793Z,3.37
2019-02-14T15:32:41.992Z,4.07
2019-02-14T15:35:11.804Z,3.70
2019-02-14T15:37:41.988Z,4.43
2019-02-14T15:40:12.960Z,3.87
2019-02-14T15:42:42.953Z,4.80
2019-02-14T15:45:12.560Z,4.60
2019-02-14T15:47:42.804Z,4.53
2019-02-14T15:50:12.378Z,4.23
2019-02-14T15:52:41.938Z,3.77
2019-02-14T15:55:11.725Z,4.40
2019-02-14T15:57:42.871Z,4.13
2019-02-14T16:00:13.609Z,3.73
2019-02-14T16:02:43.508Z,4.43
2019-02-14T16:05:14.520Z,4.30
2019-02-14T16:07:45.397Z,3.53
2019-02-14T16:10:18.731Z,3.83
2019-02-14T16:12:46.549Z,3.80
2019-02-14T16:15:16.354Z,3.50
2019-02-14T16:17:46.577Z,3.43
2019-02-14T16:20:17.532Z,4.70
2019-02-14T16:22:48.652Z,5.00
2019-02-14T16:25:18.233Z,4.10
2019-02-14T16:27:50.316Z,3.53
2019-02-14T16:30:19.671Z,3.13
2019-02-14T16:32:49.260Z,4.57
2019-02-14T16:35:19.456Z,3.73
2019-02-14T16:37:50.541Z,5.60
2019-02-14T16:40:27.558Z,4.87
2019-02-14T16:42:51.574Z,4.10
2019-02-14T16:45:21.121Z,3.97
2019-02-14T16:48:02.773Z,5.43
2019-02-14T16:50:32.964Z,5.57
2019-02-14T16:53:02.801Z,6.20
2019-02-14T16:55:32.589Z,6.63
2019-02-14T16:58:02.128Z,7.13
2019-02-14T17:00:43.985Z,6.67
2019-02-14T17:03:13.793Z,6.83
2019-02-14T17:05:43.372Z,6.10
2019-02-14T17:08:12.994Z,5.60
2019-02-14T17:10:42.540Z,5.90
2019-02-14T17:13:12.096Z,4.60
2019-02-14T17:15:41.648Z,4.40
2019-02-14T17:18:11.239Z,3.47
2019-02-14T17:20:41.142Z,3.57
2019-02-14T17:23:10.931Z,3.40
2019-02-14T17:25:40.474Z,3.07
2019-02-14T17:28:10.365Z,3.00
2019-02-14T17:30:55.297Z,3.43
2019-02-14T17:33:25.199Z,3.47
2019-02-14T17:35:54.736Z,2.80
2019-02-14T17:38:24.323Z,3.20
2019-02-14T17:40:54.125Z,3.90
2019-02-14T17:43:24.288Z,2.57
2019-02-14T17:45:53.873Z,2.87
2019-02-14T17:48:23.701Z,2.70
2019-02-14T17:50:53.616Z,2.83
2019-02-14T17:53:23.536Z,2.83
2019-02-14T17:55:53.753Z,2.80
2019-02-14T17:58:23.290Z,2.27
2019-02-14T18:00:52.948Z,2.30
2019-02-14T18:03:22.914Z,2.00
2019-02-14T18:05:52.797Z,2.23
2019-02-14T18:08:37.885Z,3.00
2019-02-14T18:11:07.482Z,2.40
2019-02-14T18:13:37.141Z,2.90
2019-02-14T18:16:06.828Z,2.87
2019-02-14T18:18:36.781Z,8.97
2019-02-14T18:21:06.329Z,6.77
2019-02-14T18:23:36.149Z,5.97
2019-02-14T18:26:06.129Z,5.43
2019-02-14T18:28:36.344Z,4.93
2019-02-14T18:31:05.984Z,4.57
2019-02-14T18:33:35.913Z,4.90
2019-02-14T18:36:05.500Z,3.70
2019-02-14T18:38:35.122Z,3.83
2019-02-14T18:41:04.751Z,3.70
2019-02-14T18:43:34.667Z,4.53
2019-02-14T18:46:05.580Z,3.30
2019-02-14T18:48:35.353Z,2.63
2019-02-14T18:51:05.260Z,3.10
2019-02-14T18:53:34.876Z,2.90
2019-02-14T18:56:04.493Z,2.03
2019-02-14T18:58:38.281Z,2.80
2019-02-14T19:01:08.187Z,5.00
2019-02-14T19:03:37.969Z,4.57
2019-02-14T19:06:07.604Z,5.00
2019-02-14T19:08:37.149Z,3.67
2019-02-14T19:11:14.981Z,4.13
2019-02-14T19:13:38.481Z,4.33
2019-02-14T19:16:11.112Z,4.77
2019-02-14T19:18:40.655Z,3.50
2019-02-14T19:21:10.427Z,3.93
2019-02-14T19:23:40.829Z,5.30
2019-02-14T19:26:10.700Z,6.43
2019-02-14T19:28:40.308Z,6.07
2019-02-14T19:31:09.880Z,4.93
2019-02-14T19:33:48.605Z,4.71
2019-02-14T19:36:18.144Z,4.10
2019-02-14T19:38:47.696Z,4.00
2019-02-14T19:41:25.124Z,3.70
2019-02-14T19:43:48.580Z,4.13
2019-02-14T19:46:18.151Z,4.10
2019-02-14T19:48:48.073Z,4.07
2019-02-14T19:51:17.729Z,4.13
2019-02-14T19:53:47.908Z,4.57
2019-02-14T19:56:17.557Z,3.83
2019-02-14T19:58:53.209Z,3.78
2019-02-14T20:01:22.773Z,4.00
2019-02-14T20:03:52.619Z,4.03
2019-02-14T20:06:22.533Z,4.03
2019-02-14T20:08:52.349Z,4.23
2019-02-14T20:11:21.984Z,3.30
2019-02-14T20:13:51.605Z,3.53
2019-02-14T20:16:21.209Z,3.17
2019-02-14T20:18:51.139Z,2.53
2019-02-14T20:21:21.468Z,2.90
2019-02-14T20:23:51.540Z,3.60
2019-02-14T20:26:22.043Z,3.90
2019-02-14T20:28:53.973Z,3.60
2019-02-14T20:31:23.559Z,4.17
2019-02-14T20:33:53.125Z,4.83
2019-02-14T20:36:22.680Z,4.60
2019-02-14T20:38:52.285Z,3.90
2019-02-14T20:41:22.429Z,4.57
2019-02-14T20:43:52.281Z,4.23
2019-02-14T20:46:21.937Z,4.97
2019-02-14T20:48:51.573Z,4.22
2019-02-14T20:51:21.505Z,4.43
2019-02-14T20:53:51.400Z,4.17
2019-02-14T20:56:20.976Z,4.60
2019-02-14T20:58:50.568Z,4.83
2019-02-14T21:01:20.155Z,6.67
2019-02-14T21:03:49.812Z,12.80
2019-02-14T21:06:19.585Z,13.63
2019-02-14T21:08:49.244Z,8.23
2019-02-14T21:11:19.052Z,6.00
2019-02-14T21:13:48.600Z,6.20
2019-02-14T21:16:18.176Z,5.30
2019-02-14T21:18:49.658Z,5.30
2019-02-14T21:21:21.103Z,6.87
2019-02-14T21:23:50.731Z,11.03
2019-02-14T21:26:20.276Z,9.07
2019-02-14T21:28:49.842Z,7.30
2019-02-14T21:31:19.488Z,5.80
2019-02-14T21:33:49.100Z,5.63
2019-02-14T21:36:18.644Z,5.70
2019-02-14T21:38:48.232Z,5.50
2019-02-14T21:41:36.477Z,5.43
2019-02-14T21:44:06.191Z,5.23
2019-02-14T21:46:35.791Z,6.53
2019-02-14T21:49:05.341Z,5.53
2019-02-14T21:51:35.121Z,5.27
2019-02-14T21:54:04.834Z,5.33
2019-02-14T21:56:34.865Z,6.23
2019-02-14T21:59:04.438Z,6.57
2019-02-14T22:01:34.335Z,4.70
2019-02-14T22:04:03.942Z,4.70
2019-02-14T22:06:33.524Z,3.70
2019-02-14T22:09:04.517Z,4.00
2019-02-14T22:11:34.918Z,3.80
2019-02-14T22:14:05.016Z,3.97
2019-02-14T22:16:34.659Z,4.40
2019-02-14T22:19:04.272Z,3.90
2019-02-14T22:21:34.342Z,3.30
2019-02-14T22:24:03.885Z,3.80
2019-02-14T22:26:35.804Z,3.70
2019-02-14T22:29:05.435Z,3.27
2019-02-14T22:31:35.304Z,3.53
2019-02-14T22:34:05.077Z,3.40
2019-02-14T22:36:36.953Z,3.47
2019-02-14T22:39:07.464Z,3.83
2019-02-14T22:41:37.333Z,3.87
2019-02-14T22:44:06.886Z,3.17
2019-02-14T22:46:36.662Z,3.33
2019-02-14T22:49:06.469Z,3.63
2019-02-14T22:51:36.576Z,4.33
2019-02-14T22:54:06.125Z,3.93
2019-02-14T22:56:35.656Z,4.30
2019-02-14T22:59:05.220Z,4.30
2019-02-14T23:01:34.913Z,4.47
2019-02-14T23:04:04.533Z,5.77
2019-02-14T23:06:34.849Z,4.77
2019-02-14T23:09:07.840Z,5.07
2019-02-14T23:11:37.385Z,5.53
2019-02-14T23:14:07.337Z,5.14
2019-02-14T23:16:36.916Z,5.37
2019-02-14T23:19:06.529Z,5.03
2019-02-14T23:21:36.457Z,5.27
2019-02-14T23:24:06.068Z,4.93
2019-02-14T23:26:35.625Z,5.17
2019-02-14T23:29:05.460Z,5.67
2019-02-14T23:31:35.013Z,5.80
2019-02-14T23:34:04.896Z,4.73
2019-02-14T23:36:34.852Z,4.90
2019-02-14T23:39:05.584Z,5.17
2019-02-14T23:41:35.136Z,5.47
2019-02-14T23:44:04.679Z,5.47
2019-02-14T23:46:55.688Z,5.63
2019-02-14T23:49:25.242Z,5.73
2019-02-14T23:51:54.780Z,4.13
2019-02-14T23:54:24.344Z,4.17
2019-02-14T23:56:53.878Z,6.67
2019-02-14T23:59:23.694Z,5.17
